createdAt,value
2022-10-06T00:00:54.602Z,10.30
2022-10-06T00:02:56.714Z,15.60
2022-10-06T00:04:58.501Z,11.93
2022-10-06T00:07:00.571Z,12.55
2022-10-06T00:09:02.580Z,11.27
2022-10-06T00:11:05.077Z,10.77
2022-10-06T00:13:07.235Z,10.85
2022-10-06T00:15:10.589Z,12.90
2022-10-06T00:17:12.275Z,13.48
2022-10-06T00:19:14.642Z,12.80
2022-10-06T00:21:16.885Z,10.32
2022-10-06T00:23:18.568Z,12.63
2022-10-06T00:25:23.233Z,12.88
2022-10-06T00:27:25.146Z,14.90
2022-10-06T00:29:26.851Z,10.07
2022-10-06T00:31:28.868Z,10.77
2022-10-06T00:33:30.717Z,11.57
2022-10-06T00:35:34.292Z,14.60
2022-10-06T00:37:37.689Z,14.20
2022-10-06T00:39:39.623Z,12.30
2022-10-06T00:41:41.363Z,12.43
2022-10-06T00:43:54.950Z,16.20
2022-10-06T00:45:56.977Z,11.98
2022-10-06T00:48:02.744Z,12.45
2022-10-06T00:50:04.988Z,12.75
2022-10-06T00:52:10.029Z,10.60
2022-10-06T00:54:13.085Z,11.00
2022-10-06T00:56:15.123Z,10.68
2022-10-06T00:58:17.176Z,11.82
2022-10-06T01:00:19.711Z,10.68
2022-10-06T01:02:33.731Z,13.80
2022-10-06T01:06:48.497Z,10.07
2022-10-06T01:08:50.522Z,9.05
2022-10-06T01:10:52.405Z,12.32
2022-10-06T01:12:54.640Z,10.23
2022-10-06T01:14:56.783Z,11.05
2022-10-06T01:17:07.679Z,15.35
2022-10-06T01:19:32.394Z,13.80
2022-10-06T01:21:44.248Z,10.68
2022-10-06T01:23:46.516Z,11.20
2022-10-06T01:25:48.480Z,13.18
2022-10-06T01:27:53.963Z,9.02
2022-10-06T01:29:57.327Z,16.27
2022-10-06T01:31:59.737Z,9.60
2022-10-06T01:34:01.669Z,10.40
2022-10-06T01:36:03.776Z,12.00
2022-10-06T01:38:05.476Z,12.73
2022-10-06T01:40:07.703Z,13.80
2022-10-06T01:42:10.431Z,10.52
2022-10-06T01:44:12.105Z,9.95
2022-10-06T01:46:14.065Z,12.38
2022-10-06T01:48:15.913Z,11.38
2022-10-06T01:50:17.687Z,16.38
2022-10-06T01:52:19.817Z,21.50
2022-10-06T01:54:21.609Z,13.50
2022-10-06T01:56:23.376Z,13.45
2022-10-06T01:58:25.430Z,12.43
2022-10-06T02:00:27.423Z,12.60
2022-10-06T02:02:31.090Z,20.15
2022-10-06T02:06:34.857Z,14.10
2022-10-06T02:08:36.602Z,12.07
2022-10-06T02:10:38.363Z,11.70
2022-10-06T02:12:40.419Z,13.43
2022-10-06T02:14:42.564Z,10.77
2022-10-06T02:16:45.185Z,11.35
2022-10-06T02:18:47.546Z,14.90
2022-10-06T02:20:49.297Z,16.80
2022-10-06T02:22:51.043Z,11.02
2022-10-06T02:24:52.834Z,12.57
2022-10-06T02:26:54.668Z,11.02
2022-10-06T02:28:56.479Z,10.65
2022-10-06T02:31:03.142Z,13.80
2022-10-06T02:33:05.185Z,12.45
2022-10-06T02:35:07.282Z,8.93
2022-10-06T02:37:09.070Z,14.80
2022-10-06T02:39:10.749Z,12.20
2022-10-06T02:41:12.522Z,10.27
2022-10-06T02:43:14.494Z,11.98
2022-10-06T02:45:16.199Z,11.13
2022-10-06T02:47:19.094Z,12.13
2022-10-06T02:49:20.933Z,11.57
2022-10-06T02:51:23.025Z,13.07
2022-10-06T02:53:25.592Z,9.13
2022-10-06T02:55:27.350Z,11.35
2022-10-06T02:57:29.129Z,11.55
2022-10-06T02:59:30.976Z,11.52
2022-10-06T03:01:33.252Z,12.68
2022-10-06T03:03:36.408Z,10.50
2022-10-06T03:05:38.177Z,9.32
2022-10-06T03:07:40.081Z,10.63
2022-10-06T03:09:42.512Z,10.75
2022-10-06T03:11:44.820Z,10.32
2022-10-06T03:13:47.483Z,12.82
2022-10-06T03:15:49.186Z,11.38
2022-10-06T03:17:51.126Z,9.10
2022-10-06T03:19:53.080Z,12.07
2022-10-06T03:21:54.793Z,11.05
2022-10-06T03:23:57.492Z,13.40
2022-10-06T03:25:59.351Z,11.27
2022-10-06T03:28:01.066Z,13.90
2022-10-06T03:30:03.229Z,10.38
2022-10-06T03:32:05.285Z,13.75
2022-10-06T03:34:07.068Z,11.23
2022-10-06T03:36:13.313Z,12.63
2022-10-06T03:38:15.148Z,12.88
2022-10-06T03:40:20.543Z,11.93
2022-10-06T03:42:22.436Z,10.20
2022-10-06T03:44:24.511Z,11.70
2022-10-06T03:46:28.614Z,9.45
2022-10-06T03:48:32.966Z,15.10
2022-10-06T03:50:35.028Z,10.43
2022-10-06T03:52:36.698Z,10.45
2022-10-06T03:54:38.445Z,11.77
2022-10-06T03:56:41.922Z,13.77
2022-10-06T03:58:46.192Z,15.00
2022-10-06T04:00:47.938Z,9.75
2022-10-06T04:02:50.594Z,11.93
2022-10-06T04:04:52.315Z,10.60
2022-10-06T04:06:54.060Z,14.15
2022-10-06T04:08:56.789Z,14.48
2022-10-06T04:11:09.957Z,14.00
2022-10-06T04:13:11.794Z,14.70
2022-10-06T04:15:13.656Z,12.20
2022-10-06T04:17:15.373Z,16.67
2022-10-06T04:19:18.080Z,11.18
2022-10-06T04:21:20.306Z,9.15
2022-10-06T04:23:21.995Z,11.68
2022-10-06T04:25:24.278Z,13.65
2022-10-06T04:27:26.162Z,13.40
2022-10-06T04:29:27.871Z,15.57
2022-10-06T04:31:33.100Z,12.80
2022-10-06T04:33:34.976Z,13.80
2022-10-06T04:35:36.669Z,12.32
2022-10-06T04:37:38.846Z,15.05
2022-10-06T04:39:40.671Z,11.30
2022-10-06T04:41:42.782Z,14.27
2022-10-06T04:43:48.791Z,11.40
2022-10-06T04:46:06.359Z,9.68
2022-10-06T04:50:16.627Z,15.30
2022-10-06T04:52:18.609Z,12.20
2022-10-06T04:54:20.313Z,11.05
2022-10-06T04:56:31.245Z,14.15
2022-10-06T04:58:44.745Z,12.45
2022-10-06T05:00:48.917Z,14.00
2022-10-06T05:02:53.250Z,9.98
2022-10-06T05:04:55.154Z,10.23
2022-10-06T05:06:56.862Z,10.88
2022-10-06T05:09:10.419Z,15.95
2022-10-06T05:11:15.116Z,11.23
2022-10-06T05:13:19.424Z,11.75
2022-10-06T05:15:21.195Z,9.77
2022-10-06T05:17:23.006Z,12.25
2022-10-06T05:19:24.800Z,10.48
2022-10-06T05:21:29.487Z,11.07
2022-10-06T05:23:34.572Z,14.07
2022-10-06T05:25:36.292Z,11.80
2022-10-06T05:27:38.041Z,10.50
2022-10-06T05:29:39.962Z,16.92
2022-10-06T05:31:41.729Z,11.68
2022-10-06T05:33:43.490Z,10.57
2022-10-06T05:36:02.325Z,11.48
2022-10-06T05:38:04.012Z,11.10
2022-10-06T05:40:06.146Z,10.48
2022-10-06T05:42:08.099Z,12.38
2022-10-06T05:44:09.805Z,11.95
2022-10-06T05:46:17.939Z,11.80
2022-10-06T05:48:19.963Z,12.95
2022-10-06T05:50:21.639Z,10.45
2022-10-06T05:52:23.448Z,15.63
2022-10-06T05:54:25.370Z,13.55
2022-10-06T05:56:32.097Z,12.25
2022-10-06T05:58:35.862Z,11.88
2022-10-06T06:00:37.927Z,10.05
2022-10-06T06:02:39.698Z,10.30
2022-10-06T06:04:41.642Z,10.55
2022-10-06T06:06:45.501Z,14.38
2022-10-06T06:08:48.774Z,14.10
2022-10-06T06:10:50.519Z,12.85
2022-10-06T06:12:52.299Z,14.00
2022-10-06T06:14:53.985Z,11.15
2022-10-06T06:16:55.761Z,7.32
2022-10-06T06:18:58.116Z,8.75
2022-10-06T06:21:01.968Z,11.07
2022-10-06T06:23:03.763Z,8.98
2022-10-06T06:25:06.052Z,8.13
2022-10-06T06:27:07.740Z,9.18
2022-10-06T06:29:09.650Z,7.85
2022-10-06T06:31:19.717Z,10.25
2022-10-06T06:33:21.887Z,11.80
2022-10-06T06:35:23.702Z,9.13
2022-10-06T06:37:25.461Z,10.85
2022-10-06T06:39:27.134Z,12.00
2022-10-06T06:41:35.380Z,13.27
2022-10-06T06:43:37.435Z,7.22
2022-10-06T06:45:39.176Z,9.50
2022-10-06T06:47:41.118Z,8.65
2022-10-06T06:49:42.853Z,8.95
2022-10-06T06:51:45.632Z,8.10
2022-10-06T06:53:47.423Z,10.40
2022-10-06T06:55:50.370Z,9.18
2022-10-06T06:57:52.429Z,10.18
2022-10-06T06:59:54.266Z,9.52
2022-10-06T07:01:56.114Z,8.95
2022-10-06T07:03:59.067Z,11.68
2022-10-06T07:06:09.490Z,7.72
2022-10-06T07:08:11.676Z,8.85
2022-10-06T07:10:13.585Z,9.63
2022-10-06T07:12:15.491Z,6.78
2022-10-06T07:14:17.842Z,6.28
2022-10-06T07:16:20.787Z,12.25
2022-10-06T07:18:22.512Z,9.55
2022-10-06T07:20:24.546Z,6.30
2022-10-06T07:22:28.476Z,8.13
2022-10-06T07:24:30.338Z,9.15
2022-10-06T07:26:32.722Z,7.35
2022-10-06T07:28:34.485Z,8.35
2022-10-06T07:30:40.831Z,7.18
2022-10-06T07:32:43.107Z,7.20
2022-10-06T07:34:44.847Z,9.25
2022-10-06T07:36:46.580Z,6.20
2022-10-06T07:38:48.973Z,6.70
2022-10-06T07:43:20.682Z,6.57
2022-10-06T07:45:28.341Z,5.38
2022-10-06T07:47:30.047Z,7.10
2022-10-06T07:49:31.729Z,7.35
2022-10-06T07:51:33.727Z,7.60
2022-10-06T07:53:35.418Z,7.03
2022-10-06T07:55:38.330Z,9.23
2022-10-06T07:57:40.315Z,9.55
2022-10-06T07:59:42.089Z,7.90
2022-10-06T08:01:43.882Z,11.50
2022-10-06T08:03:47.539Z,11.35
2022-10-06T08:07:52.481Z,7.25
2022-10-06T08:09:54.429Z,6.10
2022-10-06T08:11:56.417Z,5.18
2022-10-06T08:13:58.401Z,8.73
2022-10-06T08:16:07.378Z,5.63
2022-10-06T08:18:33.665Z,5.63
2022-10-06T08:20:30.882Z,6.28
2022-10-06T08:22:33.191Z,6.00
2022-10-06T08:25:01.126Z,7.43
2022-10-06T08:26:56.574Z,4.35
2022-10-06T08:28:58.687Z,4.57
2022-10-06T08:31:07.574Z,7.38
2022-10-06T08:33:09.369Z,4.55
2022-10-06T08:35:11.464Z,5.57
2022-10-06T08:37:20.120Z,5.43
2022-10-06T08:39:22.263Z,5.43
2022-10-06T08:41:28.362Z,4.82
2022-10-06T08:43:32.367Z,8.05
2022-10-06T08:45:40.313Z,5.63
2022-10-06T08:47:53.741Z,7.38
2022-10-06T08:49:56.142Z,6.35
2022-10-06T08:52:01.127Z,10.77
2022-10-06T08:54:10.518Z,5.47
2022-10-06T08:56:19.416Z,7.72
2022-10-06T08:58:34.721Z,7.40
2022-10-06T09:00:38.013Z,5.70
2022-10-06T09:02:46.030Z,9.75
2022-10-06T09:04:47.836Z,7.88
2022-10-06T09:07:13.416Z,7.75
2022-10-06T09:09:21.201Z,6.38
2022-10-06T09:11:59.776Z,12.15
2022-10-06T09:14:04.038Z,11.43
2022-10-06T09:16:13.158Z,4.68
2022-10-06T09:18:29.158Z,6.00
2022-10-06T09:20:44.025Z,4.65
2022-10-06T09:22:49.033Z,5.32
2022-10-06T09:24:56.925Z,4.85
2022-10-06T09:26:58.900Z,4.60
2022-10-06T09:29:00.649Z,5.63
2022-10-06T09:31:02.556Z,6.05
2022-10-06T09:33:06.727Z,5.30
2022-10-06T09:35:20.659Z,8.68
2022-10-06T09:39:24.627Z,6.25
2022-10-06T09:41:40.374Z,6.22
2022-10-06T09:43:52.609Z,9.02
2022-10-06T09:45:56.192Z,6.00
2022-10-06T09:50:28.162Z,5.25
2022-10-06T09:52:30.084Z,8.02
2022-10-06T09:54:32.467Z,6.95
2022-10-06T09:56:34.224Z,5.80
2022-10-06T09:58:36.326Z,6.53
2022-10-06T10:00:46.120Z,5.22
2022-10-06T10:02:47.999Z,6.82
2022-10-06T10:04:55.603Z,6.25
2022-10-06T10:07:16.486Z,5.78
2022-10-06T10:09:20.695Z,5.75
2022-10-06T10:11:24.064Z,6.03
2022-10-06T10:13:26.966Z,4.22
2022-10-06T10:15:48.998Z,6.50
2022-10-06T10:18:11.970Z,6.00
2022-10-06T10:20:26.711Z,8.60
2022-10-06T10:22:38.716Z,6.45
2022-10-06T10:25:14.198Z,5.72
2022-10-06T10:27:26.256Z,5.35
2022-10-06T10:30:00.086Z,8.38
2022-10-06T10:32:10.121Z,6.60
2022-10-06T10:34:36.762Z,5.85
2022-10-06T10:36:44.844Z,4.95
2022-10-06T10:38:48.525Z,4.18
2022-10-06T10:41:02.174Z,5.85
2022-10-06T10:43:22.558Z,4.15
2022-10-06T10:45:35.554Z,8.20
2022-10-06T10:47:41.628Z,7.35
2022-10-06T10:49:51.101Z,7.03
2022-10-06T10:51:58.819Z,5.35
2022-10-06T10:54:16.732Z,3.75
2022-10-06T10:56:21.925Z,4.35
2022-10-06T10:58:36.934Z,4.43
2022-10-06T11:00:43.064Z,3.97
2022-10-06T11:02:44.871Z,3.30
2022-10-06T11:04:56.882Z,3.90
2022-10-06T11:07:20.080Z,5.43
2022-10-06T11:09:46.098Z,4.05
2022-10-06T11:11:57.138Z,19.90
2022-10-06T11:14:01.565Z,5.53
2022-10-06T11:16:18.721Z,4.80
2022-10-06T11:18:43.992Z,3.08
2022-10-06T11:20:53.333Z,3.28
2022-10-06T11:23:20.992Z,3.05
2022-10-06T11:25:37.519Z,2.60
2022-10-06T11:27:57.826Z,5.88
2022-10-06T11:30:06.879Z,3.67
2022-10-06T11:32:14.563Z,4.15
2022-10-06T11:34:16.278Z,5.13
2022-10-06T11:36:44.083Z,4.20
2022-10-06T11:38:54.994Z,4.25
2022-10-06T11:41:03.365Z,8.13
2022-10-06T11:43:12.966Z,5.85
2022-10-06T11:45:25.377Z,4.82
2022-10-06T11:47:37.716Z,3.25
2022-10-06T11:49:53.710Z,5.82
2022-10-06T11:52:15.363Z,3.35
2022-10-06T11:54:40.348Z,4.03
2022-10-06T11:56:42.054Z,6.70
2022-10-06T11:58:56.416Z,5.00
2022-10-06T12:00:58.159Z,3.65
2022-10-06T12:03:30.669Z,8.00
2022-10-06T12:10:27.925Z,6.88
2022-10-06T12:12:29.784Z,4.13
2022-10-06T12:16:32.301Z,7.95
2022-10-06T12:17:23.169Z,4.83
2022-10-06T12:19:33.710Z,9.02
2022-10-06T12:21:41.447Z,4.15
2022-10-06T12:23:55.673Z,4.70
2022-10-06T12:26:12.699Z,3.65
2022-10-06T12:28:28.116Z,4.00
2022-10-06T12:30:57.946Z,2.90
2022-10-06T12:33:00.949Z,2.90
2022-10-06T12:35:08.335Z,5.30
2022-10-06T12:37:31.662Z,2.30
2022-10-06T12:39:33.522Z,3.65
2022-10-06T12:41:54.300Z,4.20
2022-10-06T12:44:03.630Z,6.03
2022-10-06T12:46:18.777Z,6.03
2022-10-06T12:48:23.149Z,3.35
2022-10-06T12:50:27.164Z,7.95
2022-10-06T12:52:46.880Z,5.63
2022-10-06T12:55:11.596Z,3.88
2022-10-06T12:57:20.539Z,4.50
2022-10-06T12:59:33.793Z,4.88
2022-10-06T13:01:35.583Z,2.80
2022-10-06T13:03:38.636Z,5.90
2022-10-06T13:05:40.503Z,3.75
2022-10-06T13:08:01.872Z,3.80
2022-10-06T13:10:16.291Z,3.53
2022-10-06T13:12:20.721Z,3.60
2022-10-06T13:14:22.406Z,3.80
2022-10-06T13:16:36.893Z,3.00
2022-10-06T13:18:38.665Z,4.07
2022-10-06T13:20:53.630Z,4.90
2022-10-06T13:23:14.711Z,4.25
2022-10-06T13:25:16.570Z,9.98
2022-10-06T13:27:18.349Z,6.03
2022-10-06T13:29:25.286Z,5.13
2022-10-06T13:31:32.806Z,2.85
2022-10-06T13:33:41.383Z,6.13
2022-10-06T13:35:43.419Z,4.30
2022-10-06T13:37:45.370Z,6.32
2022-10-06T13:39:47.074Z,3.47
2022-10-06T13:42:05.279Z,2.90
2022-10-06T13:44:12.814Z,3.85
2022-10-06T13:46:18.673Z,2.20
2022-10-06T13:48:21.858Z,1.67
2022-10-06T13:50:23.837Z,2.63
2022-10-06T13:52:28.837Z,3.50
2022-10-06T13:54:53.752Z,7.15
2022-10-06T13:56:56.089Z,3.60
2022-10-06T13:58:57.802Z,4.60
2022-10-06T14:01:01.612Z,2.45
2022-10-06T14:03:06.595Z,3.83
2022-10-06T14:05:25.201Z,4.22
2022-10-06T14:07:26.959Z,3.55
2022-10-06T14:09:33.991Z,3.70
2022-10-06T14:11:35.780Z,2.60
2022-10-06T14:14:02.244Z,7.32
2022-10-06T14:16:07.492Z,3.47
2022-10-06T14:18:19.394Z,7.15
2022-10-06T14:20:44.524Z,4.40
2022-10-06T14:22:46.683Z,2.55
2022-10-06T14:24:51.748Z,5.03
2022-10-06T14:26:53.459Z,8.13
2022-10-06T14:28:56.235Z,5.13
2022-10-06T14:30:58.989Z,2.37
2022-10-06T14:33:00.724Z,8.50
2022-10-06T14:35:02.783Z,3.60
2022-10-06T14:37:04.496Z,4.53
2022-10-06T14:39:07.604Z,4.88
2022-10-06T14:41:09.812Z,2.33
2022-10-06T14:43:12.022Z,3.97
2022-10-06T14:45:13.803Z,7.95
2022-10-06T14:47:15.766Z,7.95
2022-10-06T14:49:17.495Z,8.23
2022-10-06T14:51:19.885Z,2.85
2022-10-06T14:53:21.782Z,3.20
2022-10-06T14:55:23.475Z,4.68
2022-10-06T14:57:25.256Z,5.47
2022-10-06T14:59:27.077Z,4.25
2022-10-06T15:01:28.777Z,9.73
2022-10-06T15:03:30.644Z,5.40
2022-10-06T15:05:32.683Z,9.35
2022-10-06T15:07:34.422Z,5.55
2022-10-06T15:09:36.225Z,4.85
2022-10-06T15:11:38.748Z,3.65
2022-10-06T15:13:40.627Z,4.30
2022-10-06T15:15:42.389Z,7.22
2022-10-06T15:17:44.317Z,8.63
2022-10-06T15:19:46.056Z,6.57
2022-10-06T15:21:47.926Z,5.85
2022-10-06T15:23:56.404Z,4.00
2022-10-06T15:25:58.392Z,2.30
2022-10-06T15:28:00.286Z,7.15
2022-10-06T15:30:02.125Z,9.20
2022-10-06T15:32:05.173Z,11.95
2022-10-06T15:34:09.085Z,10.27
2022-10-06T15:36:22.436Z,12.68
2022-10-06T15:38:24.138Z,12.50
2022-10-06T15:40:25.929Z,9.63
2022-10-06T15:42:27.847Z,5.75
2022-10-06T15:44:32.065Z,5.63
2022-10-06T15:46:38.926Z,10.07
2022-10-06T15:48:41.812Z,8.63
2022-10-06T15:50:43.531Z,12.45
2022-10-06T15:52:45.307Z,10.18
2022-10-06T15:54:46.992Z,8.95
2022-10-06T15:56:50.584Z,11.13
2022-10-06T16:00:54.031Z,12.48
2022-10-06T16:02:55.830Z,13.00
2022-10-06T16:04:57.561Z,25.15
2022-10-06T16:06:59.516Z,19.20
2022-10-06T16:09:01.234Z,16.48
2022-10-06T16:11:03.375Z,7.97
2022-10-06T16:13:05.092Z,5.43
2022-10-06T16:15:07.365Z,5.22
2022-10-06T16:17:09.982Z,7.53
2022-10-06T16:19:11.912Z,6.55
2022-10-06T16:21:13.581Z,11.98
2022-10-06T16:23:15.328Z,10.23
2022-10-06T16:25:17.198Z,17.58
2022-10-06T16:27:18.923Z,13.57
2022-10-06T16:29:21.956Z,23.85
2022-10-06T16:31:24.113Z,29.23
2022-10-06T16:33:25.902Z,17.42
2022-10-06T16:35:27.642Z,11.13
2022-10-06T16:37:29.337Z,7.40
2022-10-06T16:39:31.134Z,7.13
2022-10-06T16:41:33.511Z,18.30
2022-10-06T16:43:40.007Z,25.13
2022-10-06T16:45:43.094Z,17.52
2022-10-06T16:47:44.765Z,17.92
2022-10-06T16:49:46.608Z,15.75
2022-10-06T16:51:48.384Z,11.23
2022-10-06T16:53:52.503Z,11.70
2022-10-06T16:55:54.499Z,8.52
2022-10-06T16:57:56.214Z,19.60
2022-10-06T16:59:57.929Z,13.07
2022-10-06T17:01:59.675Z,16.70
2022-10-06T17:04:07.874Z,15.25
2022-10-06T17:06:12.442Z,10.85
2022-10-06T17:08:14.285Z,9.80
2022-10-06T17:10:20.688Z,12.00
2022-10-06T17:12:23.009Z,15.30
2022-10-06T17:14:25.562Z,17.10
2022-10-06T17:16:30.259Z,20.42
2022-10-06T17:18:32.604Z,27.15
2022-10-06T17:20:34.374Z,43.45
2022-10-06T17:22:36.205Z,118.45
2022-10-06T17:24:37.994Z,72.78
2022-10-06T17:26:41.799Z,112.03
2022-10-06T17:28:53.515Z,156.30
2022-10-06T17:30:55.393Z,67.93
2022-10-06T17:32:57.140Z,74.88
2022-10-06T17:34:58.887Z,53.72
2022-10-06T17:37:01.836Z,42.10
2022-10-06T17:39:05.574Z,36.15
2022-10-06T17:43:29.091Z,38.25
2022-10-06T17:45:30.901Z,32.60
2022-10-06T17:47:32.621Z,30.60
2022-10-06T17:49:35.864Z,30.50
2022-10-06T17:51:40.172Z,29.92
2022-10-06T17:53:52.971Z,32.92
2022-10-06T17:55:54.733Z,37.28
2022-10-06T17:57:56.565Z,30.13
2022-10-06T17:59:58.297Z,32.83
2022-10-06T18:02:02.246Z,31.67
2022-10-06T18:04:06.055Z,31.95
2022-10-06T18:06:10.234Z,36.42
2022-10-06T18:08:12.489Z,45.78
2022-10-06T18:10:14.416Z,56.80
2022-10-06T18:12:16.114Z,66.70
2022-10-06T18:14:19.971Z,70.25
2022-10-06T18:16:23.757Z,56.88
2022-10-06T18:18:25.490Z,54.78
2022-10-06T18:20:27.242Z,62.00
2022-10-06T18:22:29.016Z,59.97
2022-10-06T18:24:31.758Z,62.85
2022-10-06T18:26:33.478Z,53.45
2022-10-06T18:28:35.718Z,30.30
2022-10-06T18:30:37.541Z,25.38
2022-10-06T18:36:10.080Z,21.83
2022-10-06T18:37:22.921Z,28.77
2022-10-06T18:39:24.695Z,36.47
2022-10-06T18:41:27.883Z,46.78
2022-10-06T18:43:30.501Z,67.20
2022-10-06T18:45:36.791Z,71.78
2022-10-06T18:47:41.155Z,55.92
2022-10-06T18:49:42.973Z,84.20
2022-10-06T18:51:52.642Z,70.43
2022-10-06T18:53:59.745Z,73.65
2022-10-06T18:56:01.444Z,66.00
2022-10-06T18:58:03.647Z,63.42
2022-10-06T19:00:05.941Z,91.13
2022-10-06T19:02:07.794Z,101.00
2022-10-06T19:04:11.124Z,93.15
2022-10-06T19:06:12.961Z,75.05
2022-10-06T19:08:14.664Z,89.53
2022-10-06T19:10:16.446Z,123.90
2022-10-06T19:12:18.314Z,101.68
2022-10-06T19:14:24.330Z,124.88
2022-10-06T19:16:26.056Z,142.13
2022-10-06T19:18:35.513Z,190.60
2022-10-06T19:20:37.284Z,148.90
2022-10-06T19:22:39.073Z,156.10
2022-10-06T19:24:43.811Z,151.32
2022-10-06T19:26:47.367Z,184.77
2022-10-06T19:28:49.097Z,207.00
2022-10-06T19:30:57.964Z,222.40
2022-10-06T19:32:59.774Z,279.35
2022-10-06T19:35:04.232Z,278.27
2022-10-06T19:37:09.643Z,419.45
2022-10-06T19:39:12.469Z,362.60
2022-10-06T19:41:14.272Z,433.03
2022-10-06T19:43:16.752Z,422.20
2022-10-06T19:45:18.579Z,402.83
2022-10-06T19:47:20.315Z,305.45
2022-10-06T19:49:22.953Z,266.48
2022-10-06T19:51:25.237Z,283.55
2022-10-06T19:53:26.971Z,294.58
2022-10-06T19:55:28.985Z,315.25
2022-10-06T19:57:31.751Z,349.25
2022-10-06T19:59:33.562Z,319.92
2022-10-06T20:01:35.397Z,323.77
2022-10-06T20:03:40.844Z,330.27
2022-10-06T20:05:42.823Z,278.73
2022-10-06T20:07:47.213Z,309.10
2022-10-06T20:09:49.193Z,299.77
2022-10-06T20:11:51.695Z,274.30
2022-10-06T20:13:53.562Z,273.27
2022-10-06T20:15:55.381Z,289.77
2022-10-06T20:17:57.082Z,281.67
2022-10-06T20:20:03.087Z,275.60
2022-10-06T20:22:04.811Z,274.13
2022-10-06T20:24:11.005Z,268.95
2022-10-06T20:26:14.819Z,277.98
2022-10-06T20:28:16.576Z,268.67
2022-10-06T20:30:18.425Z,246.77
2022-10-06T20:32:20.286Z,261.15
2022-10-06T20:34:24.825Z,277.60
2022-10-06T20:36:28.252Z,267.20
2022-10-06T20:38:30.286Z,281.42
2022-10-06T20:40:32.111Z,281.75
2022-10-06T20:42:33.885Z,278.77
2022-10-06T20:44:35.741Z,290.80
2022-10-06T20:46:39.099Z,303.77
2022-10-06T20:48:40.869Z,291.73
2022-10-06T20:50:42.713Z,289.27
2022-10-06T20:52:44.492Z,288.73
2022-10-06T20:54:46.174Z,287.85
2022-10-06T20:56:53.325Z,282.73
2022-10-06T20:58:55.200Z,281.17
2022-10-06T21:01:06.309Z,278.20
2022-10-06T21:03:08.256Z,291.13
2022-10-06T21:05:10.062Z,264.92
2022-10-06T21:07:11.887Z,293.30
2022-10-06T21:09:16.549Z,268.70
2022-10-06T21:11:20.698Z,303.63
2022-10-06T21:13:22.647Z,275.88
2022-10-06T21:15:24.476Z,258.10
2022-10-06T21:17:26.270Z,243.50
2022-10-06T21:19:28.018Z,216.40
2022-10-06T21:21:30.292Z,190.05
2022-10-06T21:23:41.082Z,212.55
2022-10-06T21:25:42.845Z,161.13
2022-10-06T21:27:44.896Z,150.70
2022-10-06T21:29:47.010Z,142.50
2022-10-06T21:31:48.767Z,141.23
2022-10-06T21:33:51.991Z,166.98
2022-10-06T21:36:04.832Z,152.05
2022-10-06T21:38:06.652Z,170.88
2022-10-06T21:40:08.916Z,155.48
2022-10-06T21:42:10.755Z,161.85
2022-10-06T21:44:15.049Z,156.38
2022-10-06T21:46:27.963Z,154.85
2022-10-06T21:48:31.033Z,133.95
2022-10-06T21:50:32.844Z,150.20
2022-10-06T21:52:34.597Z,144.82
2022-10-06T21:54:36.459Z,154.60
2022-10-06T21:56:38.580Z,167.43
2022-10-06T21:58:40.500Z,166.52
2022-10-06T22:00:42.308Z,192.73
2022-10-06T22:02:44.225Z,215.65
2022-10-06T22:04:46.122Z,182.55
2022-10-06T22:06:48.113Z,194.27
2022-10-06T22:08:50.909Z,186.43
2022-10-06T22:10:52.806Z,181.27
2022-10-06T22:12:54.705Z,184.32
2022-10-06T22:14:56.516Z,195.02
2022-10-06T22:16:58.378Z,193.32
2022-10-06T22:19:02.397Z,166.15
2022-10-06T22:21:22.097Z,153.45
2022-10-06T22:23:24.084Z,148.23
2022-10-06T22:25:25.859Z,143.18
2022-10-06T22:27:27.617Z,120.63
2022-10-06T22:29:29.485Z,121.90
2022-10-06T22:31:31.295Z,123.38
2022-10-06T22:35:52.147Z,90.05
2022-10-06T22:37:53.902Z,69.43
2022-10-06T22:39:55.669Z,68.18
2022-10-06T22:41:57.583Z,66.38
2022-10-06T22:43:59.634Z,63.90
2022-10-06T22:46:02.171Z,60.25
2022-10-06T22:48:07.744Z,60.60
2022-10-06T22:50:09.718Z,53.97
2022-10-06T22:52:11.458Z,56.53
2022-10-06T22:54:17.596Z,53.78
2022-10-06T22:56:19.817Z,50.03
2022-10-06T22:58:22.168Z,47.63
2022-10-06T23:00:24.325Z,46.42
2022-10-06T23:02:26.163Z,35.45
2022-10-06T23:04:28.034Z,43.45
2022-10-06T23:06:29.918Z,38.67
2022-10-06T23:08:35.243Z,38.83
2022-10-06T23:10:37.318Z,37.63
2022-10-06T23:12:39.241Z,32.60
2022-10-06T23:14:41.030Z,30.33
2022-10-06T23:16:42.840Z,26.95
2022-10-06T23:18:45.390Z,29.67
2022-10-06T23:20:47.163Z,31.85
2022-10-06T23:22:48.954Z,32.35
2022-10-06T23:24:51.125Z,31.13
2022-10-06T23:26:52.889Z,22.65
2022-10-06T23:28:56.758Z,25.40
2022-10-06T23:30:58.972Z,27.05
2022-10-06T23:33:00.759Z,31.90
2022-10-06T23:35:02.705Z,34.63
2022-10-06T23:37:04.673Z,37.60
2022-10-06T23:39:06.452Z,30.20
2022-10-06T23:41:08.527Z,29.25
2022-10-06T23:43:10.514Z,27.90
2022-10-06T23:45:12.269Z,24.60
2022-10-06T23:47:14.104Z,24.52
2022-10-06T23:49:15.966Z,25.45
2022-10-06T23:51:18.096Z,22.98
2022-10-06T23:53:19.917Z,20.73
2022-10-06T23:55:21.762Z,19.98
2022-10-06T23:57:23.526Z,22.20
2022-10-06T23:59:25.562Z,24.05
